Wetterdaten: Woche 04.05.09 - 10.05.09 (KW19)
Datum Zeit Temp. A. Feuchte A. Luftdruck Regen Wind Richtung Taupunkt Windchill Windben
04.05.2009 00:00 13,1 C 60 % 1018,1 hPa 0,0 l/m 0,2 km/h N 5,4 C 13,1 C 3,6 km/h
04.05.2009 01:00 12,9 C 61 % 1017,7 hPa 0,0 l/m 0,4 km/h N 5,5 C 12,9 C 3,2 km/h
04.05.2009 02:00 12,8 C 63 % 1017,3 hPa 0,0 l/m 0,6 km/h O-SO 5,8 C 12,8 C 5,2 km/h
04.05.2009 03:00 13,6 C 68 % 1017,1 hPa 0,0 l/m 0,5 km/h N 7,8 C 13,6 C 4,0 km/h
04.05.2009 04:00 12,4 C 70 % 1016,8 hPa 0,0 l/m 0,9 km/h SW 7,2 C 12,4 C 6,4 km/h
04.05.2009 05:00 12,7 C 65 % 1016,6 hPa 0,0 l/m 3,8 km/h W-SW 6,3 C 12,7 C 12,9 km/h
04.05.2009 06:00 12,6 C 66 % 1016,6 hPa 0,0 l/m 2,2 km/h S 6,4 C 12,6 C 10,1 km/h
04.05.2009 07:00 14,0 C 66 % 1016,5 hPa 0,0 l/m 1,4 km/h SW 7,6 C 14,0 C 9,2 km/h
04.05.2009 08:00 15,5 C 62 % 1016,5 hPa 0,0 l/m 5,2 km/h W 8,2 C 15,4 C 21,3 km/h
04.05.2009 09:00 16,6 C 59 % 1016,6 hPa 0,0 l/m 6,6 km/h O 8,6 C 16,2 C 24,1 km/h
04.05.2009 10:00 17,8 C 57 % 1016,6 hPa 0,0 l/m 7,9 km/h SW 9,2 C 17,1 C 26,2 km/h
04.05.2009 11:00 17,3 C 60 % 1016,7 hPa 0,0 l/m 6,2 km/h NW 9,4 C 17,0 C 22,1 km/h
04.05.2009 12:00 17,2 C 60 % 1016,4 hPa 0,3 l/m 6,6 km/h S 9,4 C 17,1 C 21,7 km/h
04.05.2009 13:00 16,6 C 61 % 1016,3 hPa 0,0 l/m 8,9 km/h NW 9,0 C 15,4 C 24,1 km/h
04.05.2009 14:00 16,0 C 62 % 1016,4 hPa 0,0 l/m 10,4 km/h N-NW 8,8 C 14,1 C 30,2 km/h
04.05.2009 15:00 15,3 C 65 % 1016,7 hPa 0,0 l/m 9,8 km/h SW 8,8 C 13,6 C 31,4 km/h
04.05.2009 16:00 13,8 C 71 % 1017,2 hPa 0,0 l/m 10,1 km/h W 8,6 C 11,7 C 29,8 km/h
04.05.2009 17:00 12,9 C 69 % 1018,2 hPa 0,0 l/m 7,7 km/h NO 7,4 C 12,1 C 25,4 km/h
04.05.2009 18:00 12,3 C 71 % 1019,0 hPa 0,0 l/m 8,1 km/h NW 7,1 C 11,1 C 20,5 km/h
04.05.2009 19:00 11,1 C 71 % 1019,9 hPa 0,0 l/m 9,0 km/h NW 6,0 C 9,4 C 22,5 km/h
04.05.2009 20:00 10,0 C 73 % 1020,5 hPa 0,0 l/m 4,2 km/h NW 5,3 C 9,8 C 11,7 km/h
04.05.2009 21:00 9,7 C 74 % 1021,1 hPa 0,0 l/m 3,1 km/h NW 5,2 C 9,7 C 10,1 km/h
04.05.2009 22:00 9,6 C 74 % 1021,1 hPa 0,0 l/m 3,0 km/h N-NW 5,1 C 9,6 C 8,8 km/h
04.05.2009 23:00 9,5 C 74 % 1021,3 hPa 0,0 l/m 3,7 km/h NW 5,1 C 9,5 C 11,7 km/h
05.05.2009 00:00 9,3 C 73 % 1021,5 hPa 0,0 l/m 2,9 km/h NW 4,7 C 9,3 C 10,5 km/h
05.05.2009 01:00 8,9 C 75 % 1021,4 hPa 0,0 l/m 3,2 km/h NW 4,7 C 8,9 C 9,7 km/h
05.05.2009 02:00 8,7 C 77 % 1021,1 hPa 0,0 l/m 3,4 km/h NW 4,8 C 8,7 C 10,9 km/h
05.05.2009 03:00 8,5 C 77 % 1021,2 hPa 0,0 l/m 2,2 km/h NW 4,7 C 8,5 C 9,6 km/h
05.05.2009 04:00 8,1 C 78 % 1021,4 hPa 0,0 l/m 2,1 km/h NW 4,4 C 8,1 C 8,4 km/h
05.05.2009 05:00 7,7 C 79 % 1021,4 hPa 0,0 l/m 3,2 km/h NW 4,2 C 7,7 C 8,0 km/h
05.05.2009 06:00 8,2 C 76 % 1021,7 hPa 0,0 l/m 3,1 km/h NW 4,2 C 8,2 C 10,1 km/h
05.05.2009 07:00 9,2 C 71 % 1022,0 hPa 0,0 l/m 3,8 km/h W-NW 4,1 C 9,2 C 12,5 km/h
05.05.2009 08:00 10,0 C 66 % 1022,2 hPa 0,0 l/m 5,8 km/h NW 4,0 C 9,8 C 16,1 km/h
05.05.2009 09:00 11,3 C 63 % 1022,1 hPa 0,0 l/m 5,3 km/h NO 4,5 C 11,3 C 14,1 km/h
05.05.2009 10:00 12,6 C 59 % 1022,1 hPa 0,0 l/m 5,7 km/h N-NW 4,8 C 12,6 C 14,9 km/h
05.05.2009 11:00 13,2 C 56 % 1022,2 hPa 0,0 l/m 4,8 km/h W 4,6 C 13,2 C 15,7 km/h
05.05.2009 12:00 14,0 C 49 % 1021,7 hPa 0,0 l/m 6,6 km/h W 3,3 C 13,8 C 19,7 km/h
05.05.2009 13:00 14,5 C 46 % 1020,8 hPa 0,0 l/m 6,7 km/h N-NW 2,8 C 14,0 C 20,9 km/h
05.05.2009 14:00 14,4 C 46 % 1020,1 hPa 0,0 l/m 5,0 km/h N-NO 2,9 C 14,4 C 15,7 km/h
05.05.2009 15:00 15,3 C 40 % 1019,5 hPa 0,0 l/m 6,7 km/h W 1,8 C 15,1 C 20,1 km/h
05.05.2009 16:00 15,8 C 39 % 1019,1 hPa 0,0 l/m 6,6 km/h SW 1,9 C 15,6 C 22,5 km/h
05.05.2009 17:00 15,0 C 40 % 1019,1 hPa 0,0 l/m 6,6 km/h N-NW 1,4 C 14,7 C 22,9 km/h
05.05.2009 18:00 14,4 C 41 % 1019,0 hPa 0,0 l/m 4,9 km/h N 1,4 C 14,4 C 16,1 km/h
05.05.2009 19:00 13,8 C 45 % 1019,1 hPa 0,0 l/m 3,8 km/h NW 2,0 C 13,8 C 10,9 km/h
05.05.2009 20:00 13,1 C 47 % 1019,2 hPa 0,0 l/m 3,7 km/h NW 2,0 C 13,1 C 14,1 km/h
05.05.2009 21:00 12,6 C 50 % 1019,4 hPa 0,0 l/m 3,2 km/h SW 2,5 C 12,6 C 14,1 km/h
05.05.2009 22:00 12,3 C 53 % 1019,3 hPa 0,0 l/m 4,0 km/h N-NO 2,8 C 12,3 C 13,7 km/h
05.05.2009 23:00 12,5 C 51 % 1019,0 hPa 0,0 l/m 5,3 km/h W 2,5 C 12,4 C 18,9 km/h
06.05.2009 00:00 12,5 C 51 % 1018,8 hPa 0,0 l/m 8,3 km/h W-SW 2,5 C 11,4 C 25,3 km/h
06.05.2009 01:00 12,3 C 52 % 1018,7 hPa 0,0 l/m 5,2 km/h SW 2,8 C 12,3 C 24,5 km/h
06.05.2009 02:00 11,9 C 57 % 1018,0 hPa 0,0 l/m 5,0 km/h SO 3,6 C 11,9 C 17,7 km/h
06.05.2009 03:00 10,9 C 67 % 1017,7 hPa 0,0 l/m 5,9 km/h SW 5,0 C 10,7 C 24,1 km/h
06.05.2009 04:00 10,4 C 73 % 1017,4 hPa 0,0 l/m 5,8 km/h W-SW 5,7 C 10,4 C 25,0 km/h
06.05.2009 05:00 10,0 C 79 % 1017,4 hPa 0,0 l/m 4,6 km/h W-SW 6,5 C 10,0 C 20,5 km/h
06.05.2009 06:00 10,1 C 82 % 1017,4 hPa 0,3 l/m 3,7 km/h O-NO 7,1 C 10,1 C 17,3 km/h
06.05.2009 07:00 10,4 C 82 % 1017,2 hPa 0,6 l/m 3,1 km/h S-SO 7,6 C 10,4 C 16,1 km/h
06.05.2009 08:00 10,9 C 82 % 1017,2 hPa 0,9 l/m 3,8 km/h S-SW 8,0 C 10,9 C 17,3 km/h
06.05.2009 09:00 11,6 C 80 % 1016,9 hPa 0,0 l/m 5,5 km/h S-SO 8,2 C 11,6 C 23,7 km/h
06.05.2009 10:00 12,2 C 79 % 1016,6 hPa 0,0 l/m 6,8 km/h S-SW 8,5 C 11,8 C 27,0 km/h
06.05.2009 11:00 13,2 C 75 % 1016,3 hPa 0,0 l/m 6,4 km/h N-NO 8,9 C 13,2 C 25,3 km/h
06.05.2009 12:00 14,8 C 69 % 1015,9 hPa 0,0 l/m 7,5 km/h SW 9,2 C 14,2 C 26,2 km/h
06.05.2009 13:00 15,7 C 65 % 1015,5 hPa 0,0 l/m 10,5 km/h NW 9,2 C 13,7 C 33,0 km/h
06.05.2009 14:00 15,7 C 67 % 1015,3 hPa 0,0 l/m 9,5 km/h NW 9,5 C 14,1 C 25,4 km/h
06.05.2009 15:00 15,8 C 67 % 1014,7 hPa 0,0 l/m 8,9 km/h W 9,6 C 14,6 C 29,0 km/h
06.05.2009 16:00 16,5 C 63 % 1014,5 hPa 0,0 l/m 10,7 km/h W-SW 9,3 C 14,4 C 30,6 km/h
06.05.2009 17:00 15,6 C 64 % 1014,8 hPa 0,0 l/m 9,1 km/h SW 8,9 C 14,3 C 27,8 km/h
06.05.2009 18:00 14,8 C 70 % 1014,6 hPa 0,0 l/m 8,2 km/h W-NW 9,3 C 13,8 C 25,7 km/h
06.05.2009 19:00 14,3 C 74 % 1014,8 hPa 0,0 l/m 5,5 km/h S-SW 9,7 C 14,3 C 20,1 km/h
06.05.2009 20:00 14,1 C 75 % 1015,4 hPa 0,0 l/m 5,8 km/h N-NO 9,7 C 13,9 C 21,7 km/h
06.05.2009 21:00 13,6 C 78 % 1016,0 hPa 0,3 l/m 3,1 km/h N-NW 9,8 C 13,6 C 10,1 km/h
06.05.2009 22:00 13,3 C 78 % 1016,5 hPa 0,0 l/m 2,2 km/h W-SW 9,5 C 13,3 C 8,4 km/h
06.05.2009 23:00 13,4 C 72 % 1016,9 hPa 0,0 l/m 3,8 km/h N-NO 8,5 C 13,4 C 11,7 km/h
07.05.2009 00:00 13,6 C 66 % 1017,0 hPa 0,0 l/m 3,8 km/h N-NO 7,4 C 13,6 C 13,7 km/h
07.05.2009 01:00 13,4 C 67 % 1017,0 hPa 0,0 l/m 3,1 km/h SW 7,3 C 13,4 C 11,7 km/h
07.05.2009 02:00 13,2 C 68 % 1017,1 hPa 0,0 l/m 3,0 km/h SW 7,4 C 13,2 C 14,9 km/h
07.05.2009 03:00 13,1 C 68 % 1017,2 hPa 0,0 l/m 2,4 km/h NW 7,4 C 13,1 C 11,7 km/h
07.05.2009 04:00 12,9 C 70 % 1017,6 hPa 0,0 l/m 2,9 km/h NW 7,6 C 12,9 C 12,5 km/h
07.05.2009 05:00 12,8 C 72 % 1018,0 hPa 0,0 l/m 2,5 km/h W 7,8 C 12,8 C 10,8 km/h
07.05.2009 06:00 12,9 C 73 % 1018,5 hPa 0,0 l/m 1,7 km/h S-SO 8,0 C 12,9 C 7,2 km/h
07.05.2009 07:00 13,5 C 71 % 1019,1 hPa 0,0 l/m 2,5 km/h NW 8,3 C 13,5 C 11,7 km/h
07.05.2009 08:00 14,2 C 69 % 1019,3 hPa 0,0 l/m 3,6 km/h S-SO 8,6 C 14,2 C 11,7 km/h
07.05.2009 09:00 15,6 C 64 % 1019,3 hPa 0,0 l/m 4,4 km/h N-NW 8,8 C 15,6 C 16,5 km/h
07.05.2009 10:00 16,3 C 61 % 1019,6 hPa 0,0 l/m 5,6 km/h NW 8,8 C 16,1 C 15,3 km/h
07.05.2009 11:00 16,6 C 60 % 1019,7 hPa 0,0 l/m 3,5 km/h NW 8,8 C 16,6 C 13,7 km/h
07.05.2009 12:00 16,9 C 60 % 1019,7 hPa 0,0 l/m 4,5 km/h NW 9,1 C 16,9 C 11,7 km/h
07.05.2009 13:00 17,6 C 57 % 1019,2 hPa 0,0 l/m 5,5 km/h N-NW 9,0 C 17,7 C 14,9 km/h
07.05.2009 14:00 18,5 C 55 % 1018,8 hPa 0,0 l/m 4,2 km/h N 9,3 C 18,5 C 10,1 km/h
07.05.2009 15:00 19,9 C 52 % 1018,2 hPa 0,0 l/m 4,0 km/h W-NW 9,7 C 19,9 C 13,7 km/h
07.05.2009 16:00 20,1 C 52 % 1018,0 hPa 0,0 l/m 5,4 km/h NW 9,8 C 20,0 C 16,1 km/h
07.05.2009 17:00 20,0 C 52 % 1017,7 hPa 0,0 l/m 2,9 km/h N-NW 9,8 C 20,0 C 8,9 km/h
07.05.2009 18:00 19,8 C 52 % 1017,3 hPa 0,0 l/m 1,7 km/h N-NO 9,5 C 19,8 C 6,4 km/h
07.05.2009 19:00 18,9 C 53 % 1017,4 hPa 0,0 l/m 0,4 km/h N 9,1 C 18,9 C 2,8 km/h
07.05.2009 20:00 15,4 C 65 % 1017,9 hPa 0,0 l/m 0,0 km/h N 8,9 C 15,4 C 0,8 km/h
07.05.2009 21:00 14,0 C 68 % 1018,7 hPa 0,0 l/m 0,1 km/h N 8,2 C 14,0 C 1,6 km/h
07.05.2009 22:00 11,0 C 80 % 1018,9 hPa 0,0 l/m 0,0 km/h N 7,7 C 11,0 C 0,0 km/h
07.05.2009 23:00 9,9 C 85 % 1019,0 hPa 0,0 l/m 0,0 km/h N 7,5 C 9,9 C 0,0 km/h
08.05.2009 00:00 9,0 C 87 % 1019,0 hPa 0,0 l/m 0,0 km/h N 6,9 C 9,0 C 0,0 km/h
08.05.2009 01:00 8,1 C 89 % 1018,9 hPa 0,0 l/m 0,0 km/h N 6,3 C 8,1 C 0,0 km/h
08.05.2009 02:00 7,4 C 90 % 1018,8 hPa 0,0 l/m 0,0 km/h N 5,9 C 7,4 C 0,0 km/h
08.05.2009 03:00 7,1 C 91 % 1018,7 hPa 0,0 l/m 0,0 km/h N 5,6 C 7,1 C 0,0 km/h
08.05.2009 04:00 6,4 C 91 % 1018,6 hPa 0,0 l/m 0,0 km/h N 5,1 C 6,4 C 0,0 km/h
08.05.2009 05:00 6,1 C 92 % 1018,5 hPa 0,0 l/m 0,0 km/h N 4,9 C 6,1 C 0,0 km/h
08.05.2009 06:00 7,4 C 93 % 1018,6 hPa 0,0 l/m 0,0 km/h N 6,3 C 7,4 C 0,0 km/h
08.05.2009 07:00 10,6 C 86 % 1018,7 hPa 0,0 l/m 0,0 km/h N 8,4 C 10,6 C 1,2 km/h
08.05.2009 08:00 14,2 C 74 % 1018,4 hPa 0,0 l/m 0,3 km/h N 9,5 C 14,2 C 2,8 km/h
08.05.2009 09:00 16,4 C 67 % 1018,2 hPa 0,0 l/m 0,7 km/h S-SW 10,3 C 16,4 C 4,8 km/h
08.05.2009 10:00 18,9 C 58 % 1017,8 hPa 0,0 l/m 1,6 km/h S 10,4 C 18,9 C 13,6 km/h
08.05.2009 11:00 20,8 C 56 % 1017,6 hPa 0,0 l/m 2,4 km/h O 11,5 C 20,8 C 11,3 km/h
08.05.2009 12:00 21,0 C 56 % 1017,1 hPa 0,0 l/m 2,4 km/h O 11,8 C 21,0 C 12,9 km/h
08.05.2009 13:00 22,8 C 52 % 1016,5 hPa 0,0 l/m 2,4 km/h O 12,4 C 22,8 C 12,1 km/h
08.05.2009 14:00 24,3 C 46 % 1015,8 hPa 0,0 l/m 3,2 km/h O 11,7 C 24,3 C 12,9 km/h
08.05.2009 15:00 24,8 C 46 % 1015,3 hPa 0,0 l/m 3,2 km/h O 12,2 C 24,8 C 16,9 km/h
08.05.2009 16:00 24,4 C 49 % 1015,2 hPa 0,0 l/m 1,6 km/h S 12,8 C 24,4 C 12,1 km/h
08.05.2009 17:00 23,8 C 50 % 1015,0 hPa 0,0 l/m 1,6 km/h SW 12,7 C 23,8 C 11,3 km/h
08.05.2009 18:00 24,0 C 51 % 1014,7 hPa 0,0 l/m 1,6 km/h S-SW 13,2 C 24,0 C 10,5 km/h
08.05.2009 19:00 23,2 C 52 % 1014,4 hPa 0,0 l/m 1,6 km/h W-SW 12,8 C 23,2 C 9,7 km/h
08.05.2009 20:00 21,3 C 54 % 1014,6 hPa 0,0 l/m 0,8 km/h S-SW 11,4 C 21,3 C 8,1 km/h
08.05.2009 21:00 18,7 C 62 % 1014,9 hPa 0,3 l/m 0,8 km/h N 11,1 C 18,7 C 5,7 km/h
08.05.2009 22:00 15,7 C 76 % 1015,2 hPa 0,3 l/m 0,0 km/h N 11,4 C 15,7 C 1,6 km/h
08.05.2009 23:00 16,2 C 71 % 1015,5 hPa 0,0 l/m 0,0 km/h N 10,8 C 16,2 C 3,2 km/h
09.05.2009 00:00 16,8 C 66 % 1016,2 hPa 0,0 l/m 0,0 km/h NW 10,4 C 16,8 C 7,2 km/h
09.05.2009 01:00 19,3 C 53 % 1017,0 hPa 0,0 l/m 4,0 km/h W-SW 9,4 C 19,3 C 16,1 km/h
09.05.2009 02:00 19,1 C 53 % 1017,6 hPa 0,0 l/m 7,2 km/h W 9,2 C 18,8 C 31,4 km/h
09.05.2009 03:00 18,5 C 57 % 1018,2 hPa 0,0 l/m 8,0 km/h NW 9,7 C 17,8 C 26,5 km/h
09.05.2009 04:00 17,4 C 65 % 1018,5 hPa 0,0 l/m 7,2 km/h W-NW 10,6 C 17,0 C 25,8 km/h
09.05.2009 05:00 17,3 C 66 % 1018,8 hPa 0,0 l/m 7,2 km/h NW 10,8 C 16,9 C 26,5 km/h
09.05.2009 06:00 17,1 C 67 % 1019,5 hPa 0,0 l/m 4,8 km/h NW 10,9 C 17,1 C 17,7 km/h
09.05.2009 07:00 17,0 C 69 % 1020,4 hPa 0,0 l/m 4,8 km/h NW 11,1 C 17,0 C 14,5 km/h
09.05.2009 08:00 17,2 C 70 % 1021,3 hPa 0,0 l/m 4,0 km/h NW 11,6 C 17,2 C 18,5 km/h
09.05.2009 09:00 17,5 C 70 % 1021,8 hPa 0,0 l/m 4,8 km/h NW 11,8 C 17,5 C 16,1 km/h
09.05.2009 10:00 17,8 C 69 % 1022,3 hPa 0,0 l/m 3,2 km/h NW 11,9 C 17,8 C 10,5 km/h
09.05.2009 11:00 18,8 C 63 % 1022,2 hPa 0,0 l/m 3,2 km/h NW 11,6 C 18,8 C 9,7 km/h
09.05.2009 12:00 20,0 C 58 % 1021,7 hPa 0,0 l/m 2,4 km/h N-NO 11,3 C 20,0 C 8,0 km/h
09.05.2009 13:00 21,5 C 52 % 1021,3 hPa 0,0 l/m 1,6 km/h O-NO 11,1 C 21,5 C 6,4 km/h
09.05.2009 14:00 21,7 C 53 % 1020,7 hPa 0,0 l/m 1,6 km/h NO 11,5 C 21,7 C 6,4 km/h
09.05.2009 15:00 22,0 C 55 % 1020,1 hPa 0,0 l/m 1,6 km/h O 12,4 C 22,0 C 5,6 km/h
09.05.2009 16:00 22,9 C 48 % 1019,6 hPa 0,0 l/m 1,6 km/h O 11,3 C 22,9 C 8,9 km/h
09.05.2009 17:00 22,8 C 49 % 1019,0 hPa 0,0 l/m 1,6 km/h O 11,4 C 22,8 C 9,7 km/h
09.05.2009 18:00 22,6 C 51 % 1018,5 hPa 0,0 l/m 0,8 km/h N 11,8 C 22,6 C 8,1 km/h
09.05.2009 19:00 21,5 C 50 % 1018,4 hPa 0,0 l/m 0,0 km/h N 10,5 C 21,5 C 6,4 km/h
09.05.2009 20:00 18,9 C 60 % 1018,3 hPa 0,0 l/m 0,0 km/h N 10,9 C 18,9 C 2,4 km/h
09.05.2009 21:00 15,7 C 73 % 1018,5 hPa 0,0 l/m 0,0 km/h N 10,9 C 15,7 C 0,0 km/h
09.05.2009 22:00 14,1 C 82 % 1018,4 hPa 0,0 l/m 0,0 km/h N 11,1 C 14,1 C 0,0 km/h
09.05.2009 23:00 13,9 C 84 % 1017,9 hPa 0,0 l/m 0,0 km/h N 11,2 C 13,9 C 0,0 km/h
10.05.2009 00:00 14,0 C 83 % 1017,4 hPa 0,0 l/m 0,0 km/h N 11,1 C 14,0 C 0,8 km/h
10.05.2009 01:00 13,3 C 84 % 1017,0 hPa 0,0 l/m 0,0 km/h N 10,7 C 13,3 C 1,6 km/h
10.05.2009 02:00 13,4 C 84 % 1016,8 hPa 0,0 l/m 0,0 km/h N 10,7 C 13,4 C 1,6 km/h
10.05.2009 03:00 13,3 C 83 % 1016,4 hPa 0,0 l/m 0,0 km/h N 10,4 C 13,3 C 1,6 km/h
10.05.2009 04:00 13,0 C 84 % 1016,6 hPa 0,0 l/m 0,0 km/h N 10,3 C 13,0 C 1,6 km/h
10.05.2009 05:00 11,4 C 88 % 1017,0 hPa 0,0 l/m 0,0 km/h N 9,5 C 11,4 C 0,0 km/h
10.05.2009 06:00 12,7 C 86 % 1017,3 hPa 0,0 l/m 0,0 km/h N 10,3 C 12,7 C 3,2 km/h
10.05.2009 07:00 14,3 C 83 % 1017,6 hPa 0,0 l/m 0,0 km/h N 11,4 C 14,3 C 0,8 km/h
10.05.2009 08:00 16,0 C 77 % 1018,0 hPa 0,0 l/m 0,0 km/h N 12,0 C 16,0 C 1,6 km/h
10.05.2009 09:00 19,0 C 69 % 1018,0 hPa 0,0 l/m 0,0 km/h N 13,1 C 19,0 C 1,6 km/h
10.05.2009 10:00 22,0 C 57 % 1017,8 hPa 0,0 l/m 1,6 km/h NW 13,1 C 22,0 C 7,3 km/h
10.05.2009 11:00 24,5 C 48 % 1017,8 hPa 0,0 l/m 3,2 km/h NW 12,5 C 24,5 C 12,1 km/h
10.05.2009 12:00 25,1 C 46 % 1017,5 hPa 0,0 l/m 2,4 km/h N-NO 12,5 C 25,1 C 13,6 km/h
10.05.2009 13:00 26,0 C 38 % 1017,3 hPa 0,0 l/m 3,2 km/h NO 10,5 C 26,0 C 9,7 km/h
10.05.2009 14:00 26,0 C 38 % 1016,9 hPa 0,0 l/m 2,4 km/h O-NO 10,5 C 26,0 C 8,9 km/h
10.05.2009 15:00 26,5 C 39 % 1016,4 hPa 0,0 l/m 3,2 km/h NO 11,2 C 26,5 C 8,9 km/h
10.05.2009 16:00 25,9 C 39 % 1016,2 hPa 0,0 l/m 1,6 km/h N-NO 10,7 C 25,9 C 8,1 km/h
10.05.2009 17:00 25,3 C 41 % 1016,2 hPa 0,0 l/m 0,8 km/h N 11,1 C 25,3 C 4,8 km/h
10.05.2009 18:00 24,7 C 43 % 1015,9 hPa 0,0 l/m 1,6 km/h S-SO 11,0 C 24,7 C 11,3 km/h
10.05.2009 19:00 24,0 C 48 % 1015,8 hPa 0,0 l/m 2,4 km/h SW 12,1 C 24,0 C 11,3 km/h
10.05.2009 20:00 20,5 C 61 % 1016,0 hPa 0,0 l/m 0,0 km/h N 12,5 C 20,5 C 4,0 km/h
10.05.2009 21:00 18,7 C 68 % 1016,5 hPa 0,0 l/m 0,0 km/h N 12,7 C 18,7 C 3,2 km/h
10.05.2009 22:00 17,0 C 75 % 1016,6 hPa 0,9 l/m 0,0 km/h N 12,4 C 17,0 C 3,2 km/h
10.05.2009 23:00 16,0 C 75 % 1016,5 hPa 0,0 l/m 0,0 km/h N 11,5 C 16,0 C 4,0 km/h
Min-Datum _ 08.05.09 10.05.09 08.05.09 - 04.05.09 - 05.05.09 08.05.09 07.05.09
_ Min-Zeit 05:30 13:00 19:30 - 01:00 - 12:45 05:00 20:30
Minimum _ 5,8 C 36 % 1014,3 hPa - 0,0 km/h - 0,7 C 6,1 C 0,0 km/h
Max-Datum _ 10.05.09 08.05.09 05.05.09 06.05.09 06.05.09 - 10.05.09 10.05.09 04.05.09
_ Max-Zeit 16:00 06:15 08:30 08:00 16:00 - 09:30 15:30 15:45
Maximum _ 27,2 C 93 % 1022,3 hPa 0,9 l/m 11,9 km/h
W-SW
- 13,5 C 26,8 C 41,8 km/h
W
Durchschnitt _ 15,5 C 65 % 1018,1 hPa #3,9 l/m 3,3 km/h NW 8,4 C 15,3 C 12,4 km/h